Time;durP1;ratioP1;P1;durP2;ratioP2;P2;SDS_P1;SDS_P2;PMS_P1;PMS_P2;Temp;Humidity;BMP_temperature;BMP_pressure;BME280_temperature;BME280_humidity;BME280_pressure;Samples;Min_cycle;Max_cycle;Signal;HPM_P1;HPM_P2
2022/06/08 00:02:19;;;;;;;1.63;1.30;;;12.20;49.10;;;;;;5039068;28;20263;-74
2022/06/08 00:04:47;;;;;;;1.20;1.10;;;12.20;48.50;;;;;;5069725;28;20206;-72
2022/06/08 00:07:14;;;;;;;1.13;1.00;;;12.20;48.30;;;;;;5039826;28;20294;-71
2022/06/08 00:09:42;;;;;;;1.53;1.40;;;12.20;48.10;;;;;;5050885;28;20195;-75
2022/06/08 00:12:10;;;;;;;0.90;0.90;;;12.20;47.70;;;;;;5068238;28;20172;-77
2022/06/08 00:14:38;;;;;;;1.70;1.10;;;12.30;47.70;;;;;;5062398;28;20171;-79
2022/06/08 00:17:07;;;;;;;2.83;0.97;;;12.30;48.00;;;;;;5050639;28;20577;-74
2022/06/08 00:19:34;;;;;;;0.90;0.90;;;12.40;47.80;;;;;;5067267;28;20191;-79
2022/06/08 00:22:03;;;;;;;1.23;1.00;;;12.50;47.40;;;;;;5044649;28;20191;-76
2022/06/08 00:24:30;;;;;;;1.00;1.00;;;12.60;47.50;;;;;;5039087;28;20195;-75
2022/06/08 00:26:58;;;;;;;2.07;1.00;;;12.70;47.30;;;;;;5033357;28;20224;-77
2022/06/08 00:29:25;;;;;;;4.63;1.20;;;12.70;47.40;;;;;;5034809;28;20274;-74
2022/06/08 00:31:53;;;;;;;2.20;1.03;;;12.70;46.50;;;;;;5037163;28;20196;-76
2022/06/08 00:34:20;;;;;;;1.07;0.80;;;12.80;46.20;;;;;;5033339;28;20279;-77
2022/06/08 00:36:48;;;;;;;1.10;1.00;;;13.00;45.40;;;;;;5039001;28;20645;-76
2022/06/08 00:39:15;;;;;;;1.50;0.97;;;12.90;44.80;;;;;;5055717;28;20183;-78
2022/06/08 00:41:46;;;;;;;3.10;1.00;;;12.80;45.10;;;;;;5072993;28;20167;-78
2022/06/08 00:44:20;;;;;;;2.00;0.90;;;12.90;44.50;;;;;;5065998;28;20183;-79
2022/06/08 00:46:49;;;;;;;2.43;1.20;;;13.00;44.70;;;;;;5041981;28;20176;-72
2022/06/08 00:49:31;;;;;;;1.10;0.90;;;13.10;43.70;;;;;;5033531;28;20199;-74
2022/06/08 00:52:00;;;;;;;3.00;0.80;;;13.30;44.00;;;;;;5046353;28;20176;-73
2022/06/08 00:54:38;;;;;;;2.30;0.90;;;13.30;43.60;;;;;;5051700;28;20179;-76
2022/06/08 00:57:28;;;;;;;4.17;1.00;;;13.40;42.60;;;;;;5042137;28;20262;-78
2022/06/08 01:00:01;;;;;;;2.73;0.80;;;13.30;43.10;;;;;;5049514;28;20180;-74
2022/06/08 01:02:28;;;;;;;1.10;0.93;;;13.40;43.20;;;;;;5032975;28;20173;-78
2022/06/08 01:05:20;;;;;;;1.40;0.80;;;13.70;43.30;;;;;;5034424;28;20183;-74
2022/06/08 01:07:49;;;;;;;0.70;0.70;;;13.70;42.60;;;;;;5036524;28;20658;-73
2022/06/08 01:10:20;;;;;;;1.33;0.90;;;13.80;42.40;;;;;;5053567;28;20275;-74
2022/06/08 01:12:48;;;;;;;0.70;0.70;;;13.90;42.60;;;;;;5052785;28;20171;-74
2022/06/08 01:15:20;;;;;;;0.80;0.80;;;14.10;42.70;;;;;;5044113;28;20207;-74
2022/06/08 01:17:47;;;;;;;2.73;0.80;;;14.00;41.30;;;;;;5032871;28;20177;-77
2022/06/08 01:20:15;;;;;;;1.63;0.80;;;14.10;42.20;;;;;;5032892;28;20169;-73
2022/06/08 01:22:42;;;;;;;1.40;0.73;;;14.10;41.10;;;;;;5032987;28;20659;-77
2022/06/08 01:25:12;;;;;;;3.10;0.80;;;14.00;41.60;;;;;;5032366;28;20646;-74
2022/06/08 01:28:06;;;;;;;1.40;0.90;;;14.20;41.50;;;;;;5031966;28;20211;-72
2022/06/08 01:30:56;;;;;;;1.13;0.80;;;14.10;40.60;;;;;;5044274;28;20176;-75
2022/06/08 01:33:50;;;;;;;1.93;0.77;;;14.20;39.80;;;;;;5052361;28;20584;-75
2022/06/08 01:36:36;;;;;;;1.20;0.73;;;14.20;39.60;;;;;;5044100;28;20285;-74
2022/06/08 01:39:04;;;;;;;3.80;1.13;;;14.40;39.50;;;;;;5045935;28;20183;-79
2022/06/08 01:41:50;;;;;;;3.43;0.90;;;14.50;39.70;;;;;;5045188;28;20249;-75
2022/06/08 01:47:57;;;;;;;1.90;0.70;;;14.80;39.00;;;;;;5033244;28;20208;-77
2022/06/08 01:50:54;;;;;;;1.60;0.80;;;14.70;37.60;;;;;;5032903;28;20173;-75
2022/06/08 01:53:31;;;;;;;0.80;0.73;;;14.50;37.60;;;;;;5032300;28;20173;-81
2022/06/08 01:56:24;;;;;;;3.90;0.70;;;14.60;37.70;;;;;;5050840;28;20176;-80
2022/06/08 01:59:07;;;;;;;1.60;0.70;;;14.80;38.30;;;;;;5037074;28;20198;-77
2022/06/08 02:01:45;;;;;;;1.23;0.80;;;14.90;38.00;;;;;;5037195;28;20657;-75
2022/06/08 02:05:08;;;;;;;0.90;0.80;;;14.70;38.70;;;;;;5052150;28;20211;-75
2022/06/08 02:08:01;;;;;;;1.53;0.90;;;14.70;39.70;;;;;;5037468;28;20702;-81
2022/06/08 02:11:13;;;;;;;1.73;1.03;;;14.80;38.60;;;;;;5037002;28;20680;-81
2022/06/08 02:13:47;;;;;;;0.60;0.60;;;14.80;39.30;;;;;;5034611;28;20192;-77
2022/06/08 02:17:09;;;;;;;1.63;0.70;;;15.00;38.50;;;;;;5036712;28;20193;-81
2022/06/08 02:19:53;;;;;;;0.80;0.80;;;15.00;37.70;;;;;;5035078;28;20231;-79
2022/06/08 02:22:40;;;;;;;0.80;0.70;;;15.10;38.30;;;;;;5036502;28;20169;-77
2022/06/08 02:25:43;;;;;;;1.53;0.90;;;15.20;38.40;;;;;;5035120;28;20220;-79
2022/06/08 02:28:20;;;;;;;1.27;1.00;;;15.20;38.30;;;;;;5036264;28;20205;-78
2022/06/08 02:31:04;;;;;;;1.97;0.90;;;15.20;38.70;;;;;;5036765;28;20171;-81
2022/06/08 02:36:30;;;;;;;1.00;0.70;;;15.20;38.50;;;;;;5035901;28;20223;-72
2022/06/08 02:39:27;;;;;;;1.73;0.87;;;15.20;37.90;;;;;;5036595;28;20189;-76
2022/06/08 02:42:00;;;;;;;1.87;0.97;;;15.20;38.00;;;;;;5031495;28;20193;-74
2022/06/08 02:44:31;;;;;;;1.10;0.70;;;15.50;37.40;;;;;;5035613;28;20188;-75
2022/06/08 02:47:05;;;;;;;1.50;0.70;;;15.40;36.90;;;;;;5035936;28;20175;-73
2022/06/08 02:49:37;;;;;;;1.57;0.80;;;15.50;37.10;;;;;;5035651;28;20181;-74
2022/06/08 02:52:13;;;;;;;0.70;0.70;;;15.40;36.80;;;;;;5035733;28;20509;-77
2022/06/08 02:54:41;;;;;;;0.93;0.60;;;15.40;36.90;;;;;;5035568;28;20278;-75
2022/06/08 02:57:52;;;;;;;0.70;0.70;;;15.30;37.20;;;;;;5035149;28;20211;-79
2022/06/08 03:00:36;;;;;;;1.17;0.70;;;15.30;37.20;;;;;;5050559;28;20387;-77
2022/06/08 03:03:19;;;;;;;1.40;0.83;;;15.40;36.30;;;;;;5054808;28;20190;-75
2022/06/08 03:06:02;;;;;;;1.57;0.90;;;15.40;36.90;;;;;;5053460;28;20185;-77
2022/06/08 03:08:39;;;;;;;0.80;0.77;;;15.70;37.20;;;;;;5035282;28;20677;-80
2022/06/08 03:11:10;;;;;;;1.63;0.90;;;15.60;36.10;;;;;;5035910;28;20175;-78
2022/06/08 03:13:45;;;;;;;0.63;0.60;;;15.70;36.40;;;;;;5035408;28;20190;-76
2022/06/08 03:16:34;;;;;;;3.40;0.73;;;15.80;35.90;;;;;;5035863;28;20177;-75
2022/06/08 03:19:02;;;;;;;3.20;0.93;;;15.70;36.40;;;;;;5035827;28;20172;-81
2022/06/08 03:21:33;;;;;;;1.30;0.80;;;15.80;36.30;;;;;;5035383;28;20710;-78
2022/06/08 03:24:01;;;;;;;2.60;0.70;;;15.70;35.60;;;;;;5035315;28;20270;-84
2022/06/08 03:26:35;;;;;;;0.70;0.70;;;16.00;36.20;;;;;;5035205;28;20580;-79
2022/06/08 03:29:03;;;;;;;1.20;0.70;;;16.40;35.40;;;;;;5033584;28;20203;-80
2022/06/08 03:31:31;;;;;;;1.07;0.67;;;16.40;34.70;;;;;;5034048;28;20175;-76
2022/06/08 03:33:58;;;;;;;0.80;0.60;;;16.20;34.70;;;;;;5034833;28;20184;-72
2022/06/08 03:36:26;;;;;;;3.90;0.87;;;15.90;35.00;;;;;;5034884;28;20642;-77
2022/06/08 03:38:53;;;;;;;1.37;0.80;;;15.90;35.60;;;;;;5056467;28;20181;-80
2022/06/08 03:41:23;;;;;;;3.47;0.70;;;16.10;35.10;;;;;;5048364;28;20675;-74
2022/06/08 03:43:51;;;;;;;1.70;0.73;;;16.20;34.80;;;;;;5050663;28;20219;-76
2022/06/08 03:46:20;;;;;;;0.80;0.70;;;16.40;35.00;;;;;;5056199;28;20175;-77
2022/06/08 03:48:56;;;;;;;0.70;0.70;;;16.50;33.30;;;;;;5048998;28;20261;-73
2022/06/08 03:51:24;;;;;;;1.97;0.70;;;16.20;34.10;;;;;;5064623;28;20166;-83
2022/06/08 03:54:09;;;;;;;0.73;0.70;;;16.30;33.00;;;;;;5045698;28;20878;-74
2022/06/08 03:56:40;;;;;;;0.63;0.60;;;15.90;32.90;;;;;;5049736;28;20539;-77
2022/06/08 03:59:08;;;;;;;0.70;0.70;;;16.00;33.70;;;;;;5037564;28;20186;-75
2022/06/08 04:01:36;;;;;;;1.03;0.60;;;16.30;33.30;;;;;;5034499;28;20178;-76
2022/06/08 04:04:03;;;;;;;1.30;0.70;;;16.40;32.70;;;;;;5046540;28;20179;-76
2022/06/08 04:06:31;;;;;;;0.77;0.60;;;16.30;32.50;;;;;;5034022;28;20180;-74
2022/06/08 04:08:58;;;;;;;1.17;0.73;;;16.70;32.60;;;;;;5043624;28;20728;-73
2022/06/08 04:11:26;;;;;;;1.30;0.80;;;17.20;32.50;;;;;;5034226;28;20264;-77
2022/06/08 04:13:56;;;;;;;1.47;0.60;;;17.20;32.50;;;;;;5053274;28;20183;-73
2022/06/08 04:16:27;;;;;;;3.83;0.90;;;17.00;33.20;;;;;;5036050;28;20542;-76
2022/06/08 04:18:55;;;;;;;1.90;0.70;;;16.90;32.90;;;;;;5036959;28;20198;-77
2022/06/08 04:21:32;;;;;;;0.70;0.70;;;17.00;32.60;;;;;;5033917;28;20214;-75
2022/06/08 04:24:01;;;;;;;2.20;0.70;;;16.80;32.40;;;;;;5054832;28;20198;-79
2022/06/08 04:26:47;;;;;;;1.40;1.00;;;16.80;32.40;;;;;;5046294;28;20248;-80
2022/06/08 04:29:18;;;;;;;1.47;0.80;;;17.30;32.20;;;;;;5039715;28;20319;-81
2022/06/08 04:31:53;;;;;;;2.90;0.80;;;17.50;32.30;;;;;;5050944;28;20578;-79
2022/06/08 04:34:30;;;;;;;1.23;0.80;;;17.20;32.20;;;;;;5063796;28;20190;-77
2022/06/08 04:36:58;;;;;;;1.07;0.60;;;16.80;32.70;;;;;;5043534;28;20177;-75
2022/06/08 04:39:25;;;;;;;0.70;0.63;;;17.10;32.80;;;;;;5036439;28;20184;-78
2022/06/08 04:41:53;;;;;;;0.70;0.67;;;17.60;32.20;;;;;;5041662;28;20172;-73
2022/06/08 04:44:21;;;;;;;2.00;0.67;;;17.40;32.10;;;;;;5053614;28;20184;-72
2022/06/08 04:46:48;;;;;;;0.70;0.60;;;17.20;32.80;;;;;;5058108;28;20654;-72
2022/06/08 04:49:16;;;;;;;3.27;0.63;;;17.60;32.60;;;;;;5033562;28;20179;-81
2022/06/08 04:51:43;;;;;;;3.40;0.70;;;17.30;32.30;;;;;;5052590;28;20187;-74
2022/06/08 04:54:11;;;;;;;1.37;0.80;;;17.40;32.50;;;;;;5032419;28;20275;-77
2022/06/08 04:56:38;;;;;;;3.23;0.80;;;17.90;31.90;;;;;;5036040;28;20168;-77
2022/06/08 04:59:06;;;;;;;2.10;0.70;;;17.80;30.80;;;;;;5040122;28;20177;-79
2022/06/08 05:01:33;;;;;;;2.43;0.90;;;17.90;31.50;;;;;;5032110;28;20276;-76
2022/06/08 05:04:01;;;;;;;1.30;0.87;;;18.00;31.40;;;;;;5046814;28;20199;-78
2022/06/08 05:06:29;;;;;;;2.80;0.73;;;18.20;30.90;;;;;;5031625;28;20191;-76
2022/06/08 05:08:56;;;;;;;1.47;0.60;;;17.90;30.80;;;;;;5038695;28;20219;-76
2022/06/08 05:11:24;;;;;;;4.57;0.70;;;18.20;30.80;;;;;;5052359;28;20184;-74
2022/06/08 05:13:52;;;;;;;2.23;0.80;;;18.70;29.80;;;;;;5032689;28;20208;-79
2022/06/08 05:16:19;;;;;;;0.83;0.60;;;18.00;30.90;;;;;;5032794;28;20523;-78
2022/06/08 05:18:47;;;;;;;0.60;0.60;;;18.30;31.00;;;;;;5032710;28;20905;-76
2022/06/08 05:21:14;;;;;;;2.97;0.60;;;18.20;30.30;;;;;;5034610;28;20697;-78
2022/06/08 05:23:43;;;;;;;0.80;0.67;;;17.70;30.50;;;;;;5041800;28;20180;-73
2022/06/08 05:26:12;;;;;;;4.17;0.97;;;17.70;30.30;;;;;;5042964;28;20239;-74
2022/06/08 05:28:41;;;;;;;1.37;0.70;;;17.90;30.10;;;;;;5032013;28;20212;-75
2022/06/08 05:31:09;;;;;;;1.90;0.70;;;17.90;30.40;;;;;;5032056;28;20181;-71
2022/06/08 05:33:38;;;;;;;1.23;0.50;;;17.90;30.30;;;;;;5032739;28;20215;-76
2022/06/08 05:36:06;;;;;;;1.60;0.60;;;17.60;31.30;;;;;;5031159;28;20180;-75
2022/06/08 05:38:34;;;;;;;2.53;0.67;;;17.30;31.70;;;;;;5038273;28;20192;-72
2022/06/08 05:41:01;;;;;;;1.00;0.80;;;17.20;31.60;;;;;;5035882;28;20275;-75
2022/06/08 05:43:29;;;;;;;1.70;0.90;;;17.50;31.40;;;;;;5031938;28;20184;-74
2022/06/08 05:45:56;;;;;;;1.43;0.80;;;17.40;32.10;;;;;;5046252;28;20672;-75
2022/06/08 05:48:24;;;;;;;3.90;0.93;;;18.00;31.70;;;;;;5032078;28;20740;-72
2022/06/08 05:50:51;;;;;;;2.10;0.80;;;17.30;31.40;;;;;;5032005;28;20191;-75
2022/06/08 05:53:19;;;;;;;4.50;0.90;;;17.20;31.40;;;;;;5032324;28;20549;-76
2022/06/08 05:55:46;;;;;;;0.70;0.70;;;17.00;31.70;;;;;;5037720;28;20314;-74
2022/06/08 05:58:14;;;;;;;0.90;0.70;;;16.90;32.50;;;;;;5047982;28;20262;-74
2022/06/08 06:00:43;;;;;;;1.67;1.00;;;17.10;32.30;;;;;;5046168;28;20266;-75
2022/06/08 06:03:10;;;;;;;3.07;0.90;;;16.80;32.40;;;;;;5060582;28;20195;-75
2022/06/08 06:05:40;;;;;;;0.80;0.73;;;16.30;33.10;;;;;;5046662;28;20183;-74
2022/06/08 06:08:09;;;;;;;1.67;0.80;;;15.50;34.50;;;;;;5045028;28;20683;-75
2022/06/08 06:10:38;;;;;;;0.90;0.70;;;15.20;35.40;;;;;;5049923;28;20180;-72
2022/06/08 06:13:06;;;;;;;2.83;0.70;;;14.90;36.00;;;;;;5044740;28;20247;-75
2022/06/08 06:15:34;;;;;;;1.10;0.90;;;14.80;35.70;;;;;;5046099;28;20226;-76
2022/06/08 06:18:01;;;;;;;0.97;0.90;;;14.70;35.60;;;;;;5041102;28;20188;-70
2022/06/08 06:20:31;;;;;;;3.03;0.90;;;14.50;36.40;;;;;;5050087;28;20191;-75
2022/06/08 06:22:59;;;;;;;1.33;0.80;;;14.50;37.20;;;;;;5045583;28;20183;-75
2022/06/08 06:25:27;;;;;;;0.97;0.80;;;14.30;37.80;;;;;;5044744;28;20680;-71
2022/06/08 06:27:54;;;;;;;1.27;0.83;;;14.30;38.20;;;;;;5048820;28;20225;-74
2022/06/08 06:30:22;;;;;;;0.83;0.83;;;14.10;38.80;;;;;;5043994;28;20212;-69
2022/06/08 06:32:50;;;;;;;3.57;1.10;;;13.90;39.40;;;;;;5047968;28;20188;-76
2022/06/08 06:35:29;;;;;;;2.30;1.00;;;13.80;40.00;;;;;;5050152;28;20523;-74
2022/06/08 06:37:56;;;;;;;0.80;0.80;;;13.70;40.40;;;;;;5042225;28;20196;-80
2022/06/08 06:40:24;;;;;;;0.93;0.90;;;13.70;40.90;;;;;;5050818;28;20188;-74
2022/06/08 06:42:51;;;;;;;1.83;0.90;;;13.50;41.30;;;;;;5050292;28;20187;-75
2022/06/08 06:45:19;;;;;;;2.73;1.13;;;13.40;41.60;;;;;;5051369;28;20219;-76
2022/06/08 06:47:46;;;;;;;2.70;0.90;;;13.40;41.80;;;;;;5052211;28;20207;-78
2022/06/08 06:50:17;;;;;;;2.17;0.90;;;13.30;42.10;;;;;;5049329;28;20318;-77
2022/06/08 06:52:48;;;;;;;1.57;1.10;;;13.30;42.30;;;;;;5047093;28;20187;-71
2022/06/08 06:55:27;;;;;;;3.23;1.00;;;13.20;42.50;;;;;;5052692;28;20180;-73
2022/06/08 06:57:55;;;;;;;1.93;0.90;;;13.20;42.90;;;;;;5050965;28;20187;-74
2022/06/08 07:00:25;;;;;;;1.30;1.20;;;13.10;43.20;;;;;;5055826;28;20167;-77
2022/06/08 07:02:53;;;;;;;1.67;1.20;;;13.10;43.80;;;;;;5068282;28;20183;-77
2022/06/08 07:05:30;;;;;;;2.17;1.10;;;13.00;44.40;;;;;;5044431;28;20195;-76
2022/06/08 07:07:57;;;;;;;2.67;1.20;;;12.90;44.30;;;;;;5036891;28;20588;-75
2022/06/08 07:10:25;;;;;;;3.60;1.30;;;12.80;44.80;;;;;;5049266;28;20177;-74
2022/06/08 07:12:52;;;;;;;4.13;1.10;;;12.80;44.90;;;;;;5041802;28;20535;-78
2022/06/08 07:15:23;;;;;;;3.50;1.67;;;12.70;45.10;;;;;;5034858;28;20254;-75
2022/06/08 07:17:51;;;;;;;2.83;1.10;;;12.70;45.20;;;;;;5039614;28;20187;-78
2022/06/08 07:20:20;;;;;;;2.33;1.23;;;12.70;45.30;;;;;;5051359;28;20204;-74
2022/06/08 07:22:50;;;;;;;1.73;1.23;;;12.60;45.70;;;;;;5052675;28;20164;-72
2022/06/08 07:25:19;;;;;;;1.53;1.20;;;12.50;45.80;;;;;;5052443;28;20712;-74
2022/06/08 07:27:47;;;;;;;1.37;1.07;;;12.40;46.10;;;;;;5034802;28;20192;-75
2022/06/08 07:30:15;;;;;;;2.07;1.30;;;12.40;46.20;;;;;;5054447;28;20525;-73
2022/06/08 07:32:43;;;;;;;2.30;1.53;;;12.30;46.10;;;;;;5051736;28;20191;-77
2022/06/08 07:35:12;;;;;;;2.70;1.33;;;12.30;46.20;;;;;;5044721;28;20187;-74
2022/06/08 07:37:39;;;;;;;1.97;1.30;;;12.20;46.40;;;;;;5034198;28;20176;-72
2022/06/08 07:40:08;;;;;;;1.43;1.20;;;12.20;45.90;;;;;;5045540;28;20662;-73
2022/06/08 07:42:37;;;;;;;3.40;1.20;;;12.20;46.20;;;;;;5058228;28;20603;-76
2022/06/08 07:45:07;;;;;;;3.00;1.20;;;12.10;46.20;;;;;;5057915;28;20311;-78
2022/06/08 07:49:36;;;;;;;3.20;1.20;;;12.00;46.60;;;;;;5048629;28;20615;-72
2022/06/08 07:50:22;;;;;;;6.10;1.37;;;12.00;46.50;;;;;;5040695;28;20188;-78
2022/06/08 07:52:50;;;;;;;2.47;1.47;;;11.90;46.70;;;;;;5033603;28;20257;-77
2022/06/08 07:55:17;;;;;;;1.10;1.00;;;11.90;46.80;;;;;;5034185;28;20204;-72
2022/06/08 07:57:47;;;;;;;2.20;1.43;;;11.80;46.90;;;;;;5033010;28;20181;-73
2022/06/08 08:00:17;;;;;;;2.30;1.37;;;11.80;46.90;;;;;;5041479;28;20180;-74
2022/06/08 08:02:45;;;;;;;1.43;1.27;;;11.70;46.60;;;;;;5034351;28;20599;-74
2022/06/08 08:05:14;;;;;;;1.33;1.20;;;11.80;46.50;;;;;;5040572;28;20200;-73
2022/06/08 08:07:43;;;;;;;2.27;1.40;;;11.70;46.80;;;;;;5044368;28;20207;-73
2022/06/08 08:10:15;;;;;;;4.47;1.10;;;11.70;46.80;;;;;;5061912;28;20315;-77
2022/06/08 08:12:42;;;;;;;2.97;1.30;;;11.70;46.80;;;;;;5047111;28;20184;-71
2022/06/08 08:15:10;;;;;;;1.63;1.30;;;11.70;46.70;;;;;;5051967;28;20726;-72
2022/06/08 08:17:38;;;;;;;4.43;1.40;;;11.70;46.90;;;;;;5064826;28;20177;-73
2022/06/08 08:20:08;;;;;;;1.10;1.10;;;11.60;46.90;;;;;;5048086;28;20279;-76
2022/06/08 08:22:35;;;;;;;1.53;1.30;;;11.60;47.10;;;;;;5028664;28;20645;-80
2022/06/08 08:25:03;;;;;;;1.43;1.27;;;11.60;47.30;;;;;;5039970;28;20644;-75
2022/06/08 08:27:31;;;;;;;1.87;1.40;;;11.50;47.40;;;;;;5040947;28;20677;-75
2022/06/08 08:29:58;;;;;;;2.27;1.80;;;11.50;47.20;;;;;;5033525;28;20176;-75
2022/06/08 08:32:26;;;;;;;2.43;1.27;;;11.40;47.60;;;;;;5033668;28;20230;-75
2022/06/08 08:34:53;;;;;;;1.87;1.37;;;11.40;47.60;;;;;;5057036;28;20549;-75
2022/06/08 08:37:20;;;;;;;4.30;1.40;;;11.40;47.70;;;;;;5045920;28;20184;-75
2022/06/08 08:39:48;;;;;;;3.87;1.27;;;11.40;47.70;;;;;;5045519;28;20761;-72
2022/06/08 08:42:21;;;;;;;2.03;1.30;;;11.40;48.00;;;;;;5032982;28;20180;-73
2022/06/08 08:44:51;;;;;;;4.77;1.97;;;11.30;48.20;;;;;;5033122;28;20180;-77
2022/06/08 08:47:24;;;;;;;2.30;1.67;;;11.30;48.50;;;;;;5033300;28;20199;-72
2022/06/08 08:50:06;;;;;;;3.70;1.50;;;11.20;48.60;;;;;;5033460;28;20180;-73
2022/06/08 08:52:51;;;;;;;3.00;1.70;;;11.20;48.70;;;;;;5032856;28;20485;-71
2022/06/08 08:55:31;;;;;;;1.73;1.50;;;11.20;48.90;;;;;;5033520;28;20198;-78
2022/06/08 08:58:03;;;;;;;5.27;1.70;;;11.10;48.70;;;;;;5033435;28;20175;-71
2022/06/08 09:00:57;;;;;;;2.93;1.70;;;11.10;48.90;;;;;;5032899;28;20247;-72
2022/06/08 09:03:32;;;;;;;2.47;1.50;;;11.10;48.80;;;;;;5033357;28;20184;-74
2022/06/08 09:06:07;;;;;;;1.83;1.50;;;11.00;49.20;;;;;;5032181;28;20275;-72
2022/06/08 09:08:35;;;;;;;2.83;1.70;;;11.00;49.40;;;;;;5034825;28;20216;-73
2022/06/08 09:11:03;;;;;;;4.00;1.57;;;11.00;49.40;;;;;;5033232;28;20192;-76
2022/06/08 09:13:33;;;;;;;3.73;1.80;;;10.90;49.50;;;;;;5032559;28;20188;-75
2022/06/08 09:16:01;;;;;;;2.00;1.67;;;10.80;49.90;;;;;;5041759;28;20547;-76
2022/06/08 09:18:47;;;;;;;3.17;1.60;;;10.80;50.10;;;;;;5038076;28;20242;-84
2022/06/08 09:21:34;;;;;;;2.10;1.90;;;10.80;50.20;;;;;;5032809;28;20234;-74
2022/06/08 09:24:26;;;;;;;3.73;2.00;;;10.70;50.40;;;;;;5034054;28;20192;-77
2022/06/08 09:26:57;;;;;;;4.67;2.00;;;10.70;51.00;;;;;;5034023;28;20791;-76
2022/06/08 09:29:29;;;;;;;4.53;2.13;;;10.60;51.40;;;;;;5034608;28;20595;-78
2022/06/08 09:31:57;;;;;;;3.30;2.10;;;10.60;51.40;;;;;;5033105;28;20724;-77
2022/06/08 09:34:35;;;;;;;3.20;1.80;;;10.60;51.40;;;;;;5032758;28;20275;-77
2022/06/08 09:37:13;;;;;;;2.10;1.80;;;10.50;51.80;;;;;;5031198;28;20207;-78
2022/06/08 09:39:44;;;;;;;3.23;1.90;;;10.50;52.60;;;;;;5043861;28;20184;-77
2022/06/08 09:42:40;;;;;;;1.60;1.50;;;10.40;52.30;;;;;;5032755;28;20270;-72
2022/06/08 09:45:29;;;;;;;3.70;2.20;;;10.50;52.00;;;;;;5029215;28;20183;-77
2022/06/08 09:51:31;;;;;;;3.87;1.80;;;10.40;52.60;;;;;;5042696;28;20562;-73
2022/06/08 09:54:07;;;;;;;2.23;1.80;;;10.40;52.00;;;;;;5045521;28;20193;-75
2022/06/08 09:56:52;;;;;;;4.27;2.10;;;10.40;52.40;;;;;;5055243;28;20174;-75
2022/06/08 09:59:56;;;;;;;9.37;2.00;;;10.30;52.60;;;;;;5034882;28;20224;-78
2022/06/08 10:02:45;;;;;;;3.77;1.80;;;10.30;53.00;;;;;;5038820;28;20190;-76
2022/06/08 10:05:55;;;;;;;2.90;1.83;;;10.30;52.90;;;;;;5032523;28;20642;-77
2022/06/08 10:08:48;;;;;;;3.47;1.80;;;10.20;53.20;;;;;;5040947;28;20218;-76
2022/06/08 10:11:46;;;;;;;2.80;2.10;;;10.20;53.00;;;;;;5032266;28;20214;-77
2022/06/08 10:14:21;;;;;;;3.73;2.00;;;10.20;53.50;;;;;;5047383;28;20191;-75
2022/06/08 10:17:05;;;;;;;6.27;1.77;;;10.10;53.70;;;;;;5043047;28;20843;-75
2022/06/08 10:19:47;;;;;;;2.20;1.70;;;10.00;54.30;;;;;;5041054;28;20178;-75
2022/06/08 10:22:15;;;;;;;2.27;1.70;;;10.00;54.20;;;;;;5051724;28;20183;-76
2022/06/08 10:25:21;;;;;;;1.87;1.67;;;9.90;55.00;;;;;;5055832;28;20179;-74
2022/06/08 10:28:05;;;;;;;3.03;1.67;;;9.90;55.30;;;;;;5046943;28;20302;-76
2022/06/08 10:30:50;;;;;;;3.53;1.60;;;9.80;55.20;;;;;;5039093;28;20223;-76
2022/06/08 10:33:29;;;;;;;3.77;1.80;;;9.80;55.50;;;;;;5044907;28;20511;-76
2022/06/08 10:35:58;;;;;;;3.80;1.83;;;9.80;55.10;;;;;;5035560;28;20206;-75
2022/06/08 10:38:34;;;;;;;3.50;2.23;;;9.80;55.30;;;;;;5040298;28;20180;-78
2022/06/08 10:44:04;;;;;;;3.70;1.67;;;9.60;56.20;;;;;;5035415;28;20730;-77
2022/06/08 10:46:43;;;;;;;3.33;1.90;;;9.60;56.50;;;;;;5036066;28;20274;-77
2022/06/08 10:49:32;;;;;;;2.33;1.70;;;9.60;55.80;;;;;;5050881;28;20314;-77
2022/06/08 10:52:20;;;;;;;2.57;1.80;;;9.60;56.60;;;;;;5050651;28;20210;-77
2022/06/08 10:54:57;;;;;;;3.07;2.20;;;9.60;57.00;;;;;;5043639;28;20210;-77
2022/06/08 10:57:37;;;;;;;2.97;2.03;;;9.50;57.10;;;;;;5035850;28;20182;-77
2022/06/08 11:00:19;;;;;;;4.60;2.13;;;9.50;56.80;;;;;;5043466;28;20265;-76
2022/06/08 11:03:02;;;;;;;3.67;2.30;;;9.50;57.10;;;;;;5048096;28;20281;-77
2022/06/08 11:05:46;;;;;;;2.63;1.70;;;9.50;57.00;;;;;;5053613;28;20265;-77
2022/06/08 11:08:20;;;;;;;2.23;1.80;;;9.50;56.50;;;;;;5042632;28;20250;-77
2022/06/08 11:10:48;;;;;;;2.37;1.70;;;9.50;57.20;;;;;;5048398;28;20178;-79
2022/06/08 11:13:29;;;;;;;2.57;1.90;;;9.50;56.70;;;;;;5035033;28;20187;-76
2022/06/08 11:16:06;;;;;;;2.17;1.80;;;9.40;57.50;;;;;;5044301;28;20198;-79
2022/06/08 11:18:34;;;;;;;2.47;1.70;;;9.40;57.80;;;;;;5041179;28;20187;-76
2022/06/08 11:21:14;;;;;;;3.03;1.83;;;9.30;57.90;;;;;;5053617;28;20177;-77
2022/06/08 11:24:00;;;;;;;3.27;2.50;;;9.20;58.60;;;;;;5038548;28;20229;-77
2022/06/08 11:26:53;;;;;;;2.33;1.97;;;9.20;58.30;;;;;;5037272;28;20234;-78
2022/06/08 11:29:25;;;;;;;2.67;1.50;;;9.20;58.70;;;;;;5038107;28;20230;-77
2022/06/08 11:31:54;;;;;;;2.83;2.17;;;9.20;58.90;;;;;;5035053;28;20180;-78
2022/06/08 11:34:21;;;;;;;2.53;1.80;;;9.20;58.80;;;;;;5034743;28;20222;-77
2022/06/08 11:36:53;;;;;;;2.63;1.60;;;9.20;59.20;;;;;;5034463;28;20183;-77
2022/06/08 11:39:56;;;;;;;2.37;1.90;;;9.10;59.20;;;;;;5064261;28;20186;-76
2022/06/08 11:42:31;;;;;;;4.03;2.07;;;9.10;59.30;;;;;;5034755;28;20172;-75
2022/06/08 11:45:08;;;;;;;6.53;2.27;;;9.00;60.10;;;;;;5034280;28;20669;-76
2022/06/08 11:48:18;;;;;;;6.57;2.57;;;8.90;60.40;;;;;;5034762;28;20222;-77
2022/06/08 11:50:55;;;;;;;2.77;2.20;;;8.90;61.00;;;;;;5044697;28;20220;-75
2022/06/08 11:53:39;;;;;;;2.83;2.00;;;8.90;61.40;;;;;;5034654;28;20176;-79
2022/06/08 11:56:26;;;;;;;4.53;2.40;;;8.90;60.70;;;;;;5054104;28;20196;-76
2022/06/08 11:59:00;;;;;;;2.80;2.30;;;8.90;61.70;;;;;;5036111;28;20422;-77
2022/06/08 12:01:38;;;;;;;4.13;2.50;;;8.90;61.00;;;;;;5044878;28;20564;-77
2022/06/08 12:04:19;;;;;;;2.63;2.00;;;9.00;61.30;;;;;;5045555;28;20185;-75
2022/06/08 12:06:48;;;;;;;3.07;1.97;;;9.00;59.70;;;;;;5034073;28;20175;-77
2022/06/08 12:09:34;;;;;;;3.43;2.07;;;9.10;58.50;;;;;;5051039;28;20199;-78
2022/06/08 12:12:17;;;;;;;3.20;2.10;;;9.10;58.70;;;;;;5033658;28;20179;-80
2022/06/08 12:14:45;;;;;;;2.40;2.20;;;9.00;59.00;;;;;;5033773;28;20178;-78
2022/06/08 12:17:15;;;;;;;7.17;2.13;;;9.00;59.50;;;;;;5034477;28;20638;-77
2022/06/08 12:19:46;;;;;;;3.90;2.20;;;8.90;59.40;;;;;;5054829;28;20176;-77
2022/06/08 12:22:27;;;;;;;2.63;1.87;;;8.90;59.60;;;;;;5035128;28;20264;-79
2022/06/08 12:25:14;;;;;;;2.93;2.00;;;8.90;59.80;;;;;;5042607;28;20228;-77
2022/06/08 12:27:52;;;;;;;3.10;1.93;;;8.90;60.20;;;;;;5036609;28;20210;-75
2022/06/08 12:30:31;;;;;;;5.87;2.13;;;8.80;59.70;;;;;;5054566;28;20190;-78
2022/06/08 12:33:02;;;;;;;6.03;2.20;;;9.00;59.70;;;;;;5041388;28;20253;-77
2022/06/08 12:35:40;;;;;;;3.83;2.07;;;8.90;59.90;;;;;;5034024;28;20213;-80
2022/06/08 12:38:32;;;;;;;2.50;1.70;;;8.90;59.20;;;;;;5052619;28;20214;-76
2022/06/08 12:41:07;;;;;;;2.87;1.90;;;8.80;59.30;;;;;;5048355;28;20270;-79
2022/06/08 12:43:48;;;;;;;4.00;2.33;;;8.80;59.90;;;;;;5035847;28;20182;-77
2022/06/08 12:46:30;;;;;;;3.07;2.37;;;8.80;59.60;;;;;;5039790;28;20189;-80
2022/06/08 12:49:04;;;;;;;2.57;2.20;;;8.80;60.50;;;;;;5039069;28;20843;-77
2022/06/08 12:51:47;;;;;;;5.43;2.23;;;8.70;60.20;;;;;;5033267;28;20228;-79
2022/06/08 12:54:22;;;;;;;3.40;2.10;;;8.70;61.10;;;;;;5060630;28;20215;-78
2022/06/08 12:56:54;;;;;;;4.37;1.90;;;8.70;60.70;;;;;;5033889;28;20210;-77
2022/06/08 12:59:23;;;;;;;4.63;2.20;;;8.70;60.50;;;;;;5033139;28;20192;-74
2022/06/08 13:01:50;;;;;;;3.73;2.00;;;8.70;60.20;;;;;;5033623;28;20242;-78
2022/06/08 13:04:22;;;;;;;2.70;2.20;;;8.60;60.20;;;;;;5044742;28;20189;-78
2022/06/08 13:06:50;;;;;;;3.50;2.00;;;8.60;60.90;;;;;;5035007;28;20636;-78
2022/06/08 13:09:20;;;;;;;5.27;2.20;;;8.60;60.80;;;;;;5034433;28;20213;-77
2022/06/08 13:11:54;;;;;;;2.90;1.93;;;8.70;61.10;;;;;;5033254;28;20182;-78
2022/06/08 13:14:22;;;;;;;3.70;2.20;;;8.60;61.50;;;;;;5064733;28;20181;-79
2022/06/08 13:16:50;;;;;;;3.17;1.93;;;8.50;61.90;;;;;;5053688;28;20190;-78
2022/06/08 13:19:18;;;;;;;2.77;1.80;;;8.50;62.30;;;;;;5033607;28;20179;-77
2022/06/08 13:21:48;;;;;;;3.03;2.30;;;8.40;62.60;;;;;;5039725;28;20179;-78
2022/06/08 13:24:15;;;;;;;6.17;2.70;;;8.40;63.00;;;;;;5036103;28;20171;-77
2022/06/08 13:26:44;;;;;;;2.60;1.93;;;8.40;63.20;;;;;;5042946;28;20262;-77
2022/06/08 13:29:13;;;;;;;4.50;2.20;;;8.40;63.60;;;;;;5035651;28;20231;-77
2022/06/08 13:31:40;;;;;;;4.50;2.13;;;8.40;63.60;;;;;;5048956;28;20167;-77
2022/06/08 13:34:09;;;;;;;5.47;2.10;;;8.40;64.40;;;;;;5032687;28;20190;-76
2022/06/08 13:36:42;;;;;;;2.93;2.00;;;8.30;64.20;;;;;;5061634;28;20171;-77
2022/06/08 13:39:32;;;;;;;5.67;2.23;;;8.30;64.60;;;;;;5056441;28;20588;-77
2022/06/08 13:42:12;;;;;;;3.97;1.80;;;8.20;64.40;;;;;;5036192;28;20195;-77